sensor_id;sensor_type;location;lat;lon;timestamp;P1;durP1;ratioP1;P2;durP2;ratioP2
14470;SDS011;7321;50.802;4.336;2023-03-16T00:00:36;10.20;;;6.10;;
14470;SDS011;7321;50.802;4.336;2023-03-16T00:03:04;6.07;;;5.20;;
14470;SDS011;7321;50.802;4.336;2023-03-16T00:05:30;6.47;;;5.03;;
14470;SDS011;7321;50.802;4.336;2023-03-16T00:08:05;7.50;;;4.60;;
14470;SDS011;7321;50.802;4.336;2023-03-16T00:10:31;5.70;;;5.13;;
14470;SDS011;7321;50.802;4.336;2023-03-16T00:12:57;6.47;;;5.10;;
14470;SDS011;7321;50.802;4.336;2023-03-16T00:15:22;7.10;;;5.67;;
14470;SDS011;7321;50.802;4.336;2023-03-16T00:17:48;7.67;;;5.20;;
14470;SDS011;7321;50.802;4.336;2023-03-16T00:20:15;5.93;;;4.97;;
14470;SDS011;7321;50.802;4.336;2023-03-16T00:22:42;6.17;;;5.03;;
14470;SDS011;7321;50.802;4.336;2023-03-16T00:25:09;6.30;;;5.17;;
14470;SDS011;7321;50.802;4.336;2023-03-16T00:27:38;7.17;;;5.00;;
14470;SDS011;7321;50.802;4.336;2023-03-16T00:30:05;6.13;;;4.87;;
14470;SDS011;7321;50.802;4.336;2023-03-16T00:32:34;6.43;;;5.00;;
14470;SDS011;7321;50.802;4.336;2023-03-16T00:35:01;9.43;;;5.30;;
14470;SDS011;7321;50.802;4.336;2023-03-16T00:37:28;7.33;;;4.50;;
14470;SDS011;7321;50.802;4.336;2023-03-16T00:39:56;6.90;;;4.53;;
14470;SDS011;7321;50.802;4.336;2023-03-16T00:42:27;7.47;;;4.60;;
14470;SDS011;7321;50.802;4.336;2023-03-16T00:44:53;8.47;;;5.03;;
14470;SDS011;7321;50.802;4.336;2023-03-16T00:47:27;7.37;;;4.50;;
14470;SDS011;7321;50.802;4.336;2023-03-16T00:49:54;6.47;;;4.43;;
14470;SDS011;7321;50.802;4.336;2023-03-16T00:52:21;7.87;;;4.20;;
14470;SDS011;7321;50.802;4.336;2023-03-16T00:54:47;5.83;;;4.70;;
14470;SDS011;7321;50.802;4.336;2023-03-16T00:57:15;5.60;;;4.63;;
14470;SDS011;7321;50.802;4.336;2023-03-16T00:59:45;5.80;;;4.67;;
14470;SDS011;7321;50.802;4.336;2023-03-16T01:02:13;5.77;;;4.20;;
14470;SDS011;7321;50.802;4.336;2023-03-16T01:04:40;5.80;;;4.40;;
14470;SDS011;7321;50.802;4.336;2023-03-16T01:07:07;5.53;;;4.50;;
14470;SDS011;7321;50.802;4.336;2023-03-16T01:09:36;6.70;;;4.40;;
14470;SDS011;7321;50.802;4.336;2023-03-16T01:12:03;7.33;;;4.37;;
14470;SDS011;7321;50.802;4.336;2023-03-16T01:14:31;6.30;;;3.97;;
14470;SDS011;7321;50.802;4.336;2023-03-16T01:16:59;7.03;;;4.20;;
14470;SDS011;7321;50.802;4.336;2023-03-16T01:19:26;7.80;;;4.27;;
14470;SDS011;7321;50.802;4.336;2023-03-16T01:21:52;7.13;;;3.70;;
14470;SDS011;7321;50.802;4.336;2023-03-16T01:24:18;6.83;;;4.60;;
14470;SDS011;7321;50.802;4.336;2023-03-16T01:26:44;4.60;;;3.73;;
14470;SDS011;7321;50.802;4.336;2023-03-16T01:29:10;4.53;;;4.03;;
14470;SDS011;7321;50.802;4.336;2023-03-16T01:31:37;8.77;;;4.17;;
14470;SDS011;7321;50.802;4.336;2023-03-16T01:34:03;6.77;;;3.87;;
14470;SDS011;7321;50.802;4.336;2023-03-16T01:36:29;6.93;;;3.93;;
14470;SDS011;7321;50.802;4.336;2023-03-16T01:38:56;7.23;;;3.67;;
14470;SDS011;7321;50.802;4.336;2023-03-16T01:41:23;7.13;;;4.00;;
14470;SDS011;7321;50.802;4.336;2023-03-16T01:43:51;4.97;;;3.60;;
14470;SDS011;7321;50.802;4.336;2023-03-16T01:49:06;6.23;;;3.53;;
14470;SDS011;7321;50.802;4.336;2023-03-16T01:51:58;5.87;;;3.37;;
14470;SDS011;7321;50.802;4.336;2023-03-16T01:54:46;4.80;;;3.23;;
14470;SDS011;7321;50.802;4.336;2023-03-16T01:57:15;6.77;;;3.63;;
14470;SDS011;7321;50.802;4.336;2023-03-16T01:59:50;3.67;;;3.23;;
14470;SDS011;7321;50.802;4.336;2023-03-16T02:02:23;8.43;;;3.57;;
14470;SDS011;7321;50.802;4.336;2023-03-16T02:07:35;5.37;;;3.10;;
14470;SDS011;7321;50.802;4.336;2023-03-16T02:10:07;6.07;;;3.50;;
14470;SDS011;7321;50.802;4.336;2023-03-16T02:12:34;7.03;;;3.03;;
14470;SDS011;7321;50.802;4.336;2023-03-16T02:15:00;5.70;;;2.90;;
14470;SDS011;7321;50.802;4.336;2023-03-16T02:17:27;7.17;;;3.87;;
14470;SDS011;7321;50.802;4.336;2023-03-16T02:22:49;4.70;;;2.90;;
14470;SDS011;7321;50.802;4.336;2023-03-16T02:25:20;6.30;;;3.43;;
14470;SDS011;7321;50.802;4.336;2023-03-16T02:28:09;4.03;;;2.97;;
14470;SDS011;7321;50.802;4.336;2023-03-16T02:30:50;5.33;;;2.80;;
14470;SDS011;7321;50.802;4.336;2023-03-16T02:33:17;7.10;;;3.27;;
14470;SDS011;7321;50.802;4.336;2023-03-16T02:35:45;4.60;;;3.63;;
14470;SDS011;7321;50.802;4.336;2023-03-16T02:38:11;5.80;;;3.73;;
14470;SDS011;7321;50.802;4.336;2023-03-16T02:40:38;5.43;;;3.60;;
14470;SDS011;7321;50.802;4.336;2023-03-16T02:43:18;6.30;;;3.30;;
14470;SDS011;7321;50.802;4.336;2023-03-16T02:45:54;8.43;;;3.67;;
14470;SDS011;7321;50.802;4.336;2023-03-16T02:48:27;5.20;;;3.40;;
14470;SDS011;7321;50.802;4.336;2023-03-16T02:51:02;6.13;;;3.27;;
14470;SDS011;7321;50.802;4.336;2023-03-16T02:53:28;5.33;;;3.00;;
14470;SDS011;7321;50.802;4.336;2023-03-16T02:55:54;4.87;;;3.43;;
14470;SDS011;7321;50.802;4.336;2023-03-16T02:58:19;4.90;;;2.73;;
14470;SDS011;7321;50.802;4.336;2023-03-16T03:00:45;6.20;;;3.13;;
14470;SDS011;7321;50.802;4.336;2023-03-16T03:03:11;5.03;;;2.83;;
14470;SDS011;7321;50.802;4.336;2023-03-16T03:05:38;6.23;;;3.17;;
14470;SDS011;7321;50.802;4.336;2023-03-16T03:08:04;6.47;;;3.43;;
14470;SDS011;7321;50.802;4.336;2023-03-16T03:10:31;4.07;;;2.70;;
14470;SDS011;7321;50.802;4.336;2023-03-16T03:12:57;6.50;;;3.40;;
14470;SDS011;7321;50.802;4.336;2023-03-16T03:15:23;6.17;;;3.17;;
14470;SDS011;7321;50.802;4.336;2023-03-16T03:17:49;5.20;;;3.20;;
14470;SDS011;7321;50.802;4.336;2023-03-16T03:20:15;4.43;;;3.23;;
14470;SDS011;7321;50.802;4.336;2023-03-16T03:22:42;6.03;;;3.40;;
14470;SDS011;7321;50.802;4.336;2023-03-16T03:25:10;4.87;;;3.20;;
14470;SDS011;7321;50.802;4.336;2023-03-16T03:27:36;5.67;;;3.40;;
14470;SDS011;7321;50.802;4.336;2023-03-16T03:30:03;6.07;;;3.30;;
14470;SDS011;7321;50.802;4.336;2023-03-16T03:32:29;5.07;;;3.10;;
14470;SDS011;7321;50.802;4.336;2023-03-16T03:34:55;5.97;;;3.13;;
14470;SDS011;7321;50.802;4.336;2023-03-16T03:37:21;5.63;;;2.80;;
14470;SDS011;7321;50.802;4.336;2023-03-16T03:39:47;5.20;;;3.40;;
14470;SDS011;7321;50.802;4.336;2023-03-16T03:42:13;4.87;;;2.53;;
14470;SDS011;7321;50.802;4.336;2023-03-16T03:44:39;4.73;;;2.97;;
14470;SDS011;7321;50.802;4.336;2023-03-16T03:47:05;3.27;;;2.60;;
14470;SDS011;7321;50.802;4.336;2023-03-16T03:49:30;6.23;;;3.40;;
14470;SDS011;7321;50.802;4.336;2023-03-16T03:51:56;3.67;;;2.70;;
14470;SDS011;7321;50.802;4.336;2023-03-16T03:54:23;3.90;;;2.53;;
14470;SDS011;7321;50.802;4.336;2023-03-16T03:56:50;7.27;;;3.50;;
14470;SDS011;7321;50.802;4.336;2023-03-16T03:59:16;5.40;;;2.80;;
14470;SDS011;7321;50.802;4.336;2023-03-16T04:01:42;4.43;;;3.00;;
14470;SDS011;7321;50.802;4.336;2023-03-16T04:04:08;5.67;;;2.57;;
14470;SDS011;7321;50.802;4.336;2023-03-16T04:06:34;3.70;;;2.60;;
14470;SDS011;7321;50.802;4.336;2023-03-16T04:08:59;4.67;;;2.40;;
14470;SDS011;7321;50.802;4.336;2023-03-16T04:11:25;3.80;;;2.30;;
14470;SDS011;7321;50.802;4.336;2023-03-16T04:13:51;4.13;;;2.43;;
14470;SDS011;7321;50.802;4.336;2023-03-16T04:16:20;7.20;;;2.77;;
14470;SDS011;7321;50.802;4.336;2023-03-16T04:18:46;3.00;;;2.53;;
14470;SDS011;7321;50.802;4.336;2023-03-16T04:21:15;5.43;;;2.30;;
14470;SDS011;7321;50.802;4.336;2023-03-16T04:23:42;4.37;;;2.50;;
14470;SDS011;7321;50.802;4.336;2023-03-16T04:26:08;7.93;;;2.77;;
14470;SDS011;7321;50.802;4.336;2023-03-16T04:28:34;5.37;;;2.40;;
14470;SDS011;7321;50.802;4.336;2023-03-16T04:31:04;4.87;;;2.20;;
14470;SDS011;7321;50.802;4.336;2023-03-16T04:33:32;2.37;;;2.10;;
14470;SDS011;7321;50.802;4.336;2023-03-16T04:35:59;4.60;;;2.40;;
14470;SDS011;7321;50.802;4.336;2023-03-16T04:38:27;4.90;;;2.37;;
14470;SDS011;7321;50.802;4.336;2023-03-16T04:40:54;3.57;;;2.20;;
14470;SDS011;7321;50.802;4.336;2023-03-16T04:43:20;5.63;;;2.47;;
14470;SDS011;7321;50.802;4.336;2023-03-16T04:45:47;5.53;;;2.33;;
14470;SDS011;7321;50.802;4.336;2023-03-16T04:48:13;3.90;;;2.20;;
14470;SDS011;7321;50.802;4.336;2023-03-16T04:50:39;5.17;;;2.30;;
14470;SDS011;7321;50.802;4.336;2023-03-16T04:53:05;5.03;;;2.23;;
14470;SDS011;7321;50.802;4.336;2023-03-16T04:55:31;3.70;;;2.07;;
14470;SDS011;7321;50.802;4.336;2023-03-16T04:57:57;6.93;;;2.50;;
14470;SDS011;7321;50.802;4.336;2023-03-16T05:00:23;2.97;;;2.00;;
14470;SDS011;7321;50.802;4.336;2023-03-16T05:02:49;3.20;;;2.40;;
14470;SDS011;7321;50.802;4.336;2023-03-16T05:05:19;5.83;;;2.10;;
14470;SDS011;7321;50.802;4.336;2023-03-16T05:07:46;3.83;;;2.40;;
14470;SDS011;7321;50.802;4.336;2023-03-16T05:10:12;3.13;;;2.30;;
14470;SDS011;7321;50.802;4.336;2023-03-16T05:12:40;3.50;;;2.10;;
14470;SDS011;7321;50.802;4.336;2023-03-16T05:15:06;5.30;;;2.20;;
14470;SDS011;7321;50.802;4.336;2023-03-16T05:17:33;3.67;;;2.10;;
14470;SDS011;7321;50.802;4.336;2023-03-16T05:19:59;4.60;;;2.60;;
14470;SDS011;7321;50.802;4.336;2023-03-16T05:22:25;3.77;;;2.13;;
14470;SDS011;7321;50.802;4.336;2023-03-16T05:24:51;3.37;;;2.00;;
14470;SDS011;7321;50.802;4.336;2023-03-16T05:27:16;2.40;;;1.70;;
14470;SDS011;7321;50.802;4.336;2023-03-16T05:29:42;5.27;;;2.20;;
14470;SDS011;7321;50.802;4.336;2023-03-16T05:32:10;6.43;;;2.47;;
14470;SDS011;7321;50.802;4.336;2023-03-16T05:34:36;3.03;;;2.07;;
14470;SDS011;7321;50.802;4.336;2023-03-16T05:37:02;2.70;;;1.90;;
14470;SDS011;7321;50.802;4.336;2023-03-16T05:39:28;2.93;;;2.20;;
14470;SDS011;7321;50.802;4.336;2023-03-16T05:41:58;2.33;;;1.97;;
14470;SDS011;7321;50.802;4.336;2023-03-16T05:44:24;4.17;;;2.30;;
14470;SDS011;7321;50.802;4.336;2023-03-16T05:46:49;4.10;;;2.30;;
14470;SDS011;7321;50.802;4.336;2023-03-16T05:49:16;3.40;;;2.10;;
14470;SDS011;7321;50.802;4.336;2023-03-16T05:51:42;2.47;;;2.27;;
14470;SDS011;7321;50.802;4.336;2023-03-16T05:54:07;2.87;;;2.23;;
14470;SDS011;7321;50.802;4.336;2023-03-16T05:56:33;3.00;;;2.33;;
14470;SDS011;7321;50.802;4.336;2023-03-16T05:58:59;3.00;;;2.17;;
14470;SDS011;7321;50.802;4.336;2023-03-16T06:01:26;5.37;;;2.13;;
14470;SDS011;7321;50.802;4.336;2023-03-16T06:03:52;4.30;;;1.87;;
14470;SDS011;7321;50.802;4.336;2023-03-16T06:06:19;2.87;;;2.00;;
14470;SDS011;7321;50.802;4.336;2023-03-16T06:08:46;2.97;;;2.10;;
14470;SDS011;7321;50.802;4.336;2023-03-16T06:11:13;3.23;;;2.10;;
14470;SDS011;7321;50.802;4.336;2023-03-16T06:13:39;4.43;;;2.00;;
14470;SDS011;7321;50.802;4.336;2023-03-16T06:16:05;3.13;;;2.23;;
14470;SDS011;7321;50.802;4.336;2023-03-16T06:18:32;4.40;;;2.30;;
14470;SDS011;7321;50.802;4.336;2023-03-16T06:20:58;5.53;;;2.87;;
14470;SDS011;7321;50.802;4.336;2023-03-16T06:23:24;6.30;;;2.30;;
14470;SDS011;7321;50.802;4.336;2023-03-16T06:25:50;5.13;;;2.50;;
14470;SDS011;7321;50.802;4.336;2023-03-16T06:28:19;4.40;;;2.37;;
14470;SDS011;7321;50.802;4.336;2023-03-16T06:30:46;4.03;;;1.90;;
14470;SDS011;7321;50.802;4.336;2023-03-16T06:33:11;4.47;;;2.63;;
14470;SDS011;7321;50.802;4.336;2023-03-16T06:35:37;7.20;;;2.10;;
14470;SDS011;7321;50.802;4.336;2023-03-16T06:38:03;3.30;;;2.00;;
14470;SDS011;7321;50.802;4.336;2023-03-16T06:40:29;3.93;;;2.10;;
14470;SDS011;7321;50.802;4.336;2023-03-16T06:42:55;4.67;;;2.20;;
14470;SDS011;7321;50.802;4.336;2023-03-16T06:45:21;7.43;;;2.50;;
14470;SDS011;7321;50.802;4.336;2023-03-16T06:47:47;3.90;;;1.90;;
14470;SDS011;7321;50.802;4.336;2023-03-16T06:50:13;4.30;;;2.37;;
14470;SDS011;7321;50.802;4.336;2023-03-16T06:52:39;5.10;;;2.00;;
14470;SDS011;7321;50.802;4.336;2023-03-16T06:55:06;5.80;;;2.20;;
14470;SDS011;7321;50.802;4.336;2023-03-16T06:57:45;4.20;;;2.13;;
14470;SDS011;7321;50.802;4.336;2023-03-16T07:00:22;5.97;;;2.80;;
14470;SDS011;7321;50.802;4.336;2023-03-16T07:02:59;4.87;;;2.10;;
14470;SDS011;7321;50.802;4.336;2023-03-16T07:05:29;4.83;;;2.40;;
14470;SDS011;7321;50.802;4.336;2023-03-16T07:07:58;3.57;;;2.07;;
14470;SDS011;7321;50.802;4.336;2023-03-16T07:10:38;6.67;;;2.17;;
14470;SDS011;7321;50.802;4.336;2023-03-16T07:13:24;5.47;;;2.67;;
14470;SDS011;7321;50.802;4.336;2023-03-16T07:15:51;7.13;;;2.50;;
14470;SDS011;7321;50.802;4.336;2023-03-16T07:18:18;4.47;;;2.47;;
14470;SDS011;7321;50.802;4.336;2023-03-16T07:20:44;3.97;;;2.30;;
14470;SDS011;7321;50.802;4.336;2023-03-16T07:23:10;3.33;;;2.40;;
14470;SDS011;7321;50.802;4.336;2023-03-16T07:25:36;4.20;;;2.33;;
14470;SDS011;7321;50.802;4.336;2023-03-16T07:28:02;4.27;;;2.40;;
14470;SDS011;7321;50.802;4.336;2023-03-16T07:30:28;11.00;;;3.17;;
14470;SDS011;7321;50.802;4.336;2023-03-16T07:32:55;4.50;;;2.60;;
14470;SDS011;7321;50.802;4.336;2023-03-16T07:35:21;4.27;;;2.33;;
14470;SDS011;7321;50.802;4.336;2023-03-16T07:37:47;4.53;;;2.00;;
14470;SDS011;7321;50.802;4.336;2023-03-16T07:40:13;5.90;;;2.30;;
14470;SDS011;7321;50.802;4.336;2023-03-16T07:42:39;3.17;;;2.20;;
14470;SDS011;7321;50.802;4.336;2023-03-16T07:45:06;5.13;;;2.37;;
14470;SDS011;7321;50.802;4.336;2023-03-16T07:47:32;2.70;;;1.93;;
14470;SDS011;7321;50.802;4.336;2023-03-16T07:49:58;3.57;;;1.90;;
14470;SDS011;7321;50.802;4.336;2023-03-16T07:52:25;4.27;;;2.30;;
14470;SDS011;7321;50.802;4.336;2023-03-16T07:54:51;6.27;;;2.30;;
14470;SDS011;7321;50.802;4.336;2023-03-16T07:57:17;3.20;;;2.03;;
14470;SDS011;7321;50.802;4.336;2023-03-16T07:59:43;2.97;;;2.03;;
14470;SDS011;7321;50.802;4.336;2023-03-16T08:02:11;5.23;;;2.50;;
14470;SDS011;7321;50.802;4.336;2023-03-16T08:04:38;5.93;;;2.53;;
14470;SDS011;7321;50.802;4.336;2023-03-16T08:07:07;6.90;;;2.30;;
14470;SDS011;7321;50.802;4.336;2023-03-16T08:09:36;3.60;;;2.10;;
14470;SDS011;7321;50.802;4.336;2023-03-16T08:12:03;4.10;;;2.10;;
14470;SDS011;7321;50.802;4.336;2023-03-16T08:14:30;3.13;;;2.00;;
14470;SDS011;7321;50.802;4.336;2023-03-16T08:17:02;3.17;;;2.17;;
14470;SDS011;7321;50.802;4.336;2023-03-16T08:19:29;3.77;;;2.00;;
14470;SDS011;7321;50.802;4.336;2023-03-16T08:21:56;4.37;;;1.97;;
14470;SDS011;7321;50.802;4.336;2023-03-16T08:24:25;6.93;;;2.67;;
14470;SDS011;7321;50.802;4.336;2023-03-16T08:26:53;5.00;;;2.13;;
14470;SDS011;7321;50.802;4.336;2023-03-16T08:29:20;3.70;;;2.10;;
14470;SDS011;7321;50.802;4.336;2023-03-16T08:31:46;4.97;;;1.90;;
14470;SDS011;7321;50.802;4.336;2023-03-16T08:34:12;4.50;;;2.07;;
14470;SDS011;7321;50.802;4.336;2023-03-16T08:36:40;4.20;;;1.87;;
14470;SDS011;7321;50.802;4.336;2023-03-16T08:39:08;2.83;;;1.93;;
14470;SDS011;7321;50.802;4.336;2023-03-16T08:41:34;2.93;;;1.90;;
14470;SDS011;7321;50.802;4.336;2023-03-16T08:44:00;5.07;;;1.93;;
14470;SDS011;7321;50.802;4.336;2023-03-16T08:46:27;3.67;;;1.90;;
14470;SDS011;7321;50.802;4.336;2023-03-16T08:48:53;4.53;;;1.90;;
14470;SDS011;7321;50.802;4.336;2023-03-16T08:51:20;7.27;;;2.40;;
14470;SDS011;7321;50.802;4.336;2023-03-16T08:53:45;3.33;;;1.73;;
14470;SDS011;7321;50.802;4.336;2023-03-16T08:56:12;3.70;;;1.80;;
14470;SDS011;7321;50.802;4.336;2023-03-16T08:58:39;2.93;;;1.70;;
14470;SDS011;7321;50.802;4.336;2023-03-16T09:01:10;2.77;;;1.70;;
14470;SDS011;7321;50.802;4.336;2023-03-16T09:03:37;3.73;;;1.80;;
14470;SDS011;7321;50.802;4.336;2023-03-16T09:06:05;3.03;;;1.60;;
14470;SDS011;7321;50.802;4.336;2023-03-16T09:08:38;2.10;;;1.33;;
14470;SDS011;7321;50.802;4.336;2023-03-16T09:11:05;3.60;;;1.90;;
14470;SDS011;7321;50.802;4.336;2023-03-16T09:13:33;3.60;;;1.53;;
14470;SDS011;7321;50.802;4.336;2023-03-16T09:15:59;2.80;;;1.40;;
14470;SDS011;7321;50.802;4.336;2023-03-16T09:18:26;3.47;;;1.80;;
14470;SDS011;7321;50.802;4.336;2023-03-16T09:20:53;2.90;;;1.37;;
14470;SDS011;7321;50.802;4.336;2023-03-16T09:23:23;5.90;;;1.77;;
14470;SDS011;7321;50.802;4.336;2023-03-16T09:25:50;3.40;;;1.70;;
14470;SDS011;7321;50.802;4.336;2023-03-16T09:28:17;3.73;;;1.80;;
14470;SDS011;7321;50.802;4.336;2023-03-16T09:30:44;4.27;;;1.63;;
14470;SDS011;7321;50.802;4.336;2023-03-16T09:33:10;4.13;;;1.77;;
14470;SDS011;7321;50.802;4.336;2023-03-16T09:35:36;2.67;;;1.20;;
14470;SDS011;7321;50.802;4.336;2023-03-16T09:38:02;3.37;;;1.43;;
14470;SDS011;7321;50.802;4.336;2023-03-16T09:40:28;3.53;;;1.40;;
14470;SDS011;7321;50.802;4.336;2023-03-16T09:43:09;2.73;;;1.33;;
14470;SDS011;7321;50.802;4.336;2023-03-16T09:46:05;2.37;;;1.43;;
14470;SDS011;7321;50.802;4.336;2023-03-16T09:48:36;3.60;;;1.23;;
14470;SDS011;7321;50.802;4.336;2023-03-16T09:51:05;3.80;;;1.80;;
14470;SDS011;7321;50.802;4.336;2023-03-16T09:53:37;2.73;;;1.40;;
14470;SDS011;7321;50.802;4.336;2023-03-16T09:56:11;3.63;;;1.40;;
14470;SDS011;7321;50.802;4.336;2023-03-16T09:58:51;6.13;;;1.43;;
14470;SDS011;7321;50.802;4.336;2023-03-16T10:09:37;4.43;;;1.13;;
14470;SDS011;7321;50.802;4.336;2023-03-16T10:12:12;1.80;;;1.10;;
14470;SDS011;7321;50.802;4.336;2023-03-16T10:20:40;5.77;;;1.57;;
14470;SDS011;7321;50.802;4.336;2023-03-16T10:23:12;2.23;;;1.10;;
14470;SDS011;7321;50.802;4.336;2023-03-16T10:25:46;2.07;;;1.20;;
14470;SDS011;7321;50.802;4.336;2023-03-16T10:28:18;1.80;;;1.30;;
14470;SDS011;7321;50.802;4.336;2023-03-16T10:30:51;2.10;;;1.20;;
14470;SDS011;7321;50.802;4.336;2023-03-16T10:33:23;4.10;;;1.37;;
14470;SDS011;7321;50.802;4.336;2023-03-16T10:35:52;5.93;;;1.50;;
14470;SDS011;7321;50.802;4.336;2023-03-16T10:43:46;2.40;;;0.90;;
14470;SDS011;7321;50.802;4.336;2023-03-16T10:46:15;1.93;;;1.20;;
14470;SDS011;7321;50.802;4.336;2023-03-16T10:48:42;1.17;;;1.07;;
14470;SDS011;7321;50.802;4.336;2023-03-16T10:51:17;2.30;;;1.20;;
14470;SDS011;7321;50.802;4.336;2023-03-16T10:53:46;2.87;;;1.50;;
14470;SDS011;7321;50.802;4.336;2023-03-16T10:56:23;3.73;;;1.30;;
14470;SDS011;7321;50.802;4.336;2023-03-16T10:58:49;2.90;;;1.30;;
14470;SDS011;7321;50.802;4.336;2023-03-16T11:01:17;2.27;;;0.93;;
14470;SDS011;7321;50.802;4.336;2023-03-16T11:03:49;3.43;;;1.27;;
14470;SDS011;7321;50.802;4.336;2023-03-16T11:06:21;1.80;;;0.80;;
14470;SDS011;7321;50.802;4.336;2023-03-16T11:08:50;1.57;;;0.97;;
14470;SDS011;7321;50.802;4.336;2023-03-16T11:11:28;1.57;;;1.10;;
14470;SDS011;7321;50.802;4.336;2023-03-16T11:13:57;1.30;;;0.77;;
14470;SDS011;7321;50.802;4.336;2023-03-16T11:19:48;2.10;;;1.20;;
14470;SDS011;7321;50.802;4.336;2023-03-16T11:22:25;3.10;;;1.10;;
14470;SDS011;7321;50.802;4.336;2023-03-16T11:27:34;2.03;;;1.00;;
14470;SDS011;7321;50.802;4.336;2023-03-16T11:30:41;1.77;;;0.80;;
14470;SDS011;7321;50.802;4.336;2023-03-16T11:33:12;2.97;;;1.00;;
14470;SDS011;7321;50.802;4.336;2023-03-16T11:38:21;2.20;;;0.90;;
14470;SDS011;7321;50.802;4.336;2023-03-16T11:43:43;6.27;;;1.30;;
14470;SDS011;7321;50.802;4.336;2023-03-16T12:11:37;2.27;;;0.97;;
14470;SDS011;7321;50.802;4.336;2023-03-16T12:16:44;2.93;;;1.00;;
14470;SDS011;7321;50.802;4.336;2023-03-16T12:19:16;1.73;;;1.00;;
14470;SDS011;7321;50.802;4.336;2023-03-16T12:24:41;3.00;;;1.67;;
14470;SDS011;7321;50.802;4.336;2023-03-16T12:32:48;3.93;;;1.27;;
14470;SDS011;7321;50.802;4.336;2023-03-16T12:35:38;3.90;;;1.27;;
14470;SDS011;7321;50.802;4.336;2023-03-16T12:46:24;4.57;;;1.20;;
14470;SDS011;7321;50.802;4.336;2023-03-16T12:49:05;1.50;;;1.00;;
14470;SDS011;7321;50.802;4.336;2023-03-16T12:51:33;1.57;;;1.03;;
14470;SDS011;7321;50.802;4.336;2023-03-16T12:54:00;3.13;;;1.30;;
14470;SDS011;7321;50.802;4.336;2023-03-16T12:56:29;1.20;;;1.10;;
14470;SDS011;7321;50.802;4.336;2023-03-16T12:58:56;1.30;;;1.00;;
14470;SDS011;7321;50.802;4.336;2023-03-16T13:01:28;1.13;;;0.90;;
14470;SDS011;7321;50.802;4.336;2023-03-16T13:06:40;3.43;;;1.60;;
14470;SDS011;7321;50.802;4.336;2023-03-16T13:09:16;3.10;;;1.50;;
14470;SDS011;7321;50.802;4.336;2023-03-16T13:11:47;1.23;;;1.07;;
14470;SDS011;7321;50.802;4.336;2023-03-16T13:19:43;1.73;;;1.10;;
14470;SDS011;7321;50.802;4.336;2023-03-16T13:22:24;1.30;;;0.97;;
14470;SDS011;7321;50.802;4.336;2023-03-16T13:24:52;3.63;;;1.23;;
14470;SDS011;7321;50.802;4.336;2023-03-16T13:27:22;1.40;;;1.00;;
14470;SDS011;7321;50.802;4.336;2023-03-16T13:29:54;1.60;;;0.90;;
14470;SDS011;7321;50.802;4.336;2023-03-16T13:32:21;1.77;;;1.00;;
14470;SDS011;7321;50.802;4.336;2023-03-16T13:34:49;1.67;;;0.93;;
14470;SDS011;7321;50.802;4.336;2023-03-16T13:37:18;5.63;;;1.20;;
14470;SDS011;7321;50.802;4.336;2023-03-16T13:39:52;1.47;;;1.10;;
14470;SDS011;7321;50.802;4.336;2023-03-16T13:42:24;2.40;;;1.10;;
14470;SDS011;7321;50.802;4.336;2023-03-16T13:44:53;2.20;;;1.00;;
14470;SDS011;7321;50.802;4.336;2023-03-16T13:47:20;2.57;;;1.00;;
14470;SDS011;7321;50.802;4.336;2023-03-16T13:49:53;1.70;;;0.73;;
14470;SDS011;7321;50.802;4.336;2023-03-16T13:52:29;2.77;;;1.00;;
14470;SDS011;7321;50.802;4.336;2023-03-16T13:54:58;4.27;;;1.50;;
14470;SDS011;7321;50.802;4.336;2023-03-16T13:57:27;1.33;;;0.90;;
14470;SDS011;7321;50.802;4.336;2023-03-16T14:02:42;1.90;;;1.10;;
14470;SDS011;7321;50.802;4.336;2023-03-16T14:05:10;2.47;;;1.07;;
14470;SDS011;7321;50.802;4.336;2023-03-16T14:07:41;2.97;;;1.10;;
14470;SDS011;7321;50.802;4.336;2023-03-16T14:10:11;1.57;;;0.90;;
14470;SDS011;7321;50.802;4.336;2023-03-16T14:12:53;3.73;;;0.90;;
14470;SDS011;7321;50.802;4.336;2023-03-16T14:15:24;2.60;;;0.97;;
14470;SDS011;7321;50.802;4.336;2023-03-16T14:17:51;2.60;;;1.10;;
14470;SDS011;7321;50.802;4.336;2023-03-16T14:20:19;2.40;;;1.20;;
14470;SDS011;7321;50.802;4.336;2023-03-16T14:22:51;2.67;;;1.00;;
14470;SDS011;7321;50.802;4.336;2023-03-16T14:25:21;1.43;;;1.10;;
14470;SDS011;7321;50.802;4.336;2023-03-16T14:27:58;2.10;;;1.07;;
14470;SDS011;7321;50.802;4.336;2023-03-16T14:30:27;2.07;;;0.90;;
14470;SDS011;7321;50.802;4.336;2023-03-16T14:35:31;4.40;;;1.50;;
14470;SDS011;7321;50.802;4.336;2023-03-16T14:43:49;1.50;;;0.83;;
14470;SDS011;7321;50.802;4.336;2023-03-16T14:46:30;0.77;;;0.70;;
14470;SDS011;7321;50.802;4.336;2023-03-16T14:49:02;1.53;;;1.00;;
14470;SDS011;7321;50.802;4.336;2023-03-16T14:51:41;1.30;;;0.73;;
14470;SDS011;7321;50.802;4.336;2023-03-16T14:54:10;1.13;;;0.90;;
14470;SDS011;7321;50.802;4.336;2023-03-16T14:56:37;3.50;;;0.90;;
14470;SDS011;7321;50.802;4.336;2023-03-16T14:59:03;2.60;;;1.10;;
14470;SDS011;7321;50.802;4.336;2023-03-16T15:01:29;1.35;;;0.93;;
14470;SDS011;7321;50.802;4.336;2023-03-16T15:03:55;1.70;;;1.00;;
14470;SDS011;7321;50.802;4.336;2023-03-16T15:06:21;2.55;;;1.25;;
14470;SDS011;7321;50.802;4.336;2023-03-16T15:08:47;1.65;;;1.27;;
14470;SDS011;7321;50.802;4.336;2023-03-16T15:11:14;1.13;;;0.80;;
14470;SDS011;7321;50.802;4.336;2023-03-16T15:13:48;1.47;;;0.90;;
14470;SDS011;7321;50.802;4.336;2023-03-16T15:16:15;1.57;;;0.80;;
14470;SDS011;7321;50.802;4.336;2023-03-16T15:18:40;2.53;;;1.03;;
14470;SDS011;7321;50.802;4.336;2023-03-16T15:21:13;1.90;;;0.90;;
14470;SDS011;7321;50.802;4.336;2023-03-16T15:23:42;1.80;;;0.93;;
14470;SDS011;7321;50.802;4.336;2023-03-16T15:26:10;2.97;;;0.87;;
14470;SDS011;7321;50.802;4.336;2023-03-16T15:28:37;1.13;;;0.67;;
14470;SDS011;7321;50.802;4.336;2023-03-16T15:31:04;2.13;;;0.80;;
14470;SDS011;7321;50.802;4.336;2023-03-16T15:33:30;1.17;;;0.80;;
14470;SDS011;7321;50.802;4.336;2023-03-16T15:35:57;1.47;;;0.80;;
14470;SDS011;7321;50.802;4.336;2023-03-16T15:38:30;1.93;;;0.90;;
14470;SDS011;7321;50.802;4.336;2023-03-16T15:40:57;1.40;;;0.90;;
14470;SDS011;7321;50.802;4.336;2023-03-16T15:43:25;2.20;;;1.00;;
14470;SDS011;7321;50.802;4.336;2023-03-16T15:45:56;2.60;;;0.77;;
14470;SDS011;7321;50.802;4.336;2023-03-16T15:48:24;2.03;;;1.00;;
14470;SDS011;7321;50.802;4.336;2023-03-16T15:50:54;1.50;;;1.10;;
14470;SDS011;7321;50.802;4.336;2023-03-16T15:53:30;2.57;;;1.00;;
14470;SDS011;7321;50.802;4.336;2023-03-16T15:56:03;2.70;;;1.10;;
14470;SDS011;7321;50.802;4.336;2023-03-16T15:58:32;4.77;;;1.50;;
14470;SDS011;7321;50.802;4.336;2023-03-16T16:01:00;1.53;;;1.17;;
14470;SDS011;7321;50.802;4.336;2023-03-16T16:03:27;3.67;;;1.70;;
14470;SDS011;7321;50.802;4.336;2023-03-16T16:05:54;2.67;;;1.37;;
14470;SDS011;7321;50.802;4.336;2023-03-16T16:08:20;4.40;;;1.70;;
14470;SDS011;7321;50.802;4.336;2023-03-16T16:10:46;3.23;;;1.40;;
14470;SDS011;7321;50.802;4.336;2023-03-16T16:13:26;3.13;;;1.47;;
14470;SDS011;7321;50.802;4.336;2023-03-16T16:15:55;3.53;;;1.97;;
14470;SDS011;7321;50.802;4.336;2023-03-16T16:18:31;3.83;;;2.00;;
14470;SDS011;7321;50.802;4.336;2023-03-16T16:21:03;4.00;;;2.30;;
14470;SDS011;7321;50.802;4.336;2023-03-16T16:23:31;2.67;;;1.50;;
14470;SDS011;7321;50.802;4.336;2023-03-16T16:26:01;2.93;;;1.70;;
14470;SDS011;7321;50.802;4.336;2023-03-16T16:28:31;2.77;;;1.73;;
14470;SDS011;7321;50.802;4.336;2023-03-16T16:30:59;1.57;;;1.33;;
14470;SDS011;7321;50.802;4.336;2023-03-16T16:33:28;3.03;;;1.20;;
14470;SDS011;7321;50.802;4.336;2023-03-16T16:35:57;2.03;;;1.30;;
14470;SDS011;7321;50.802;4.336;2023-03-16T16:38:24;3.80;;;1.83;;
14470;SDS011;7321;50.802;4.336;2023-03-16T16:40:51;2.63;;;1.30;;
14470;SDS011;7321;50.802;4.336;2023-03-16T16:43:27;3.27;;;1.37;;
14470;SDS011;7321;50.802;4.336;2023-03-16T16:45:55;3.77;;;1.30;;
14470;SDS011;7321;50.802;4.336;2023-03-16T16:48:41;1.97;;;1.50;;
14470;SDS011;7321;50.802;4.336;2023-03-16T16:51:11;2.53;;;1.40;;
14470;SDS011;7321;50.802;4.336;2023-03-16T16:53:59;4.27;;;1.50;;